Time;durP1;ratioP1;P1;durP2;ratioP2;P2;SDS_P1;SDS_P2;PMS_P1;PMS_P2;Temp;Humidity;BMP_temperature;BMP_pressure;BME280_temperature;BME280_humidity;BME280_pressure;Samples;Min_cycle;Max_cycle;Signal;HPM_P1;HPM_P2
2023/05/16 00:00:34;;;;;;;;;;;;;;;16.67;46.56;100734.78;5096860;28;1117;-55
2023/05/16 00:03:03;;;;;;;;;;;;;;;17.34;46.99;100730.03;5096585;28;1085;-55
2023/05/16 00:05:29;;;;;;;;;;;;;;;16.75;47.68;100718.59;5096438;28;1063;-55
2023/05/16 00:07:54;;;;;;;;;;;;;;;16.56;46.82;100710.09;5069433;28;1025;-55
2023/05/16 00:10:20;;;;;;;;;;;;;;;16.45;46.52;100716.66;5095813;28;863;-55
2023/05/16 00:12:50;;;;;;;;;;;;;;;16.38;45.61;100716.97;5092519;28;992;-55
2023/05/16 00:15:16;;;;;;;;;;;;;;;16.80;46.08;100714.19;5096013;28;1909;-55
2023/05/16 00:17:45;;;;;;;;;;;;;;;17.31;47.40;100714.09;5082883;28;1297;-55
2023/05/16 00:20:13;;;;;;;;;;;;;;;16.66;47.76;100712.03;5096391;28;987;-55
2023/05/16 00:22:39;;;;;;;;;;;;;;;16.56;47.11;100704.63;5079193;28;1146;-55
2023/05/16 00:25:04;;;;;;;;;;;;;;;17.51;47.39;100715.94;5085463;28;1190;-55
2023/05/16 00:27:30;;;;;;;;;;;;;;;16.96;48.14;100715.00;5092830;28;1126;-54
2023/05/16 00:29:55;;;;;;;;;;;;;;;16.78;47.43;100711.72;5075629;28;1094;-55
2023/05/16 00:32:22;;;;;;;;;;;;;;;17.47;47.60;100714.06;5075974;28;1039;-55
2023/05/16 00:34:48;;;;;;;;;;;;;;;16.86;47.84;100721.34;5075978;28;901;-55
2023/05/16 00:37:14;;;;;;;;;;;;;;;16.65;46.91;100713.09;5074401;28;1914;-53
2023/05/16 00:39:39;;;;;;;;;;;;;;;16.55;46.17;100708.44;5095838;28;1030;-55
2023/05/16 00:42:05;;;;;;;;;;;;;;;17.49;47.01;100714.56;5077374;28;1023;-55
2023/05/16 00:44:30;;;;;;;;;;;;;;;17.07;47.62;100717.47;5086457;28;1177;-55
2023/05/16 00:46:57;;;;;;;;;;;;;;;16.71;47.12;100712.00;5092213;28;1126;-54
2023/05/16 00:49:23;;;;;;;;;;;;;;;16.55;46.55;100718.59;5095144;28;1026;-55
2023/05/16 00:51:48;;;;;;;;;;;;;;;17.03;46.90;100719.13;5076836;28;1098;-54
2023/05/16 00:54:14;;;;;;;;;;;;;;;17.17;47.65;100707.56;5077809;28;1055;-55
2023/05/16 00:56:39;;;;;;;;;;;;;;;16.87;47.08;100714.72;5095892;28;1905;-55
2023/05/16 00:59:05;;;;;;;;;;;;;;;16.50;47.02;100718.59;5068547;28;1162;-54
2023/05/16 01:01:31;;;;;;;;;;;;;;;16.42;46.14;100709.81;5075600;28;1102;-54
2023/05/16 01:03:57;;;;;;;;;;;;;;;17.28;47.10;100709.97;5057957;28;1224;-53
2023/05/16 01:06:22;;;;;;;;;;;;;;;16.70;47.55;100712.28;5075536;28;1066;-57
2023/05/16 01:08:48;;;;;;;;;;;;;;;16.66;47.78;100711.19;5084523;28;1119;-57
2023/05/16 01:11:22;;;;;;;;;;;;;;;17.01;47.46;100715.84;5095573;28;1054;-56
2023/05/16 01:13:59;;;;;;;;;;;;;;;16.68;47.17;100714.47;5086114;28;1157;-56
2023/05/16 01:16:26;;;;;;;;;;;;;;;16.46;46.70;100707.34;5079719;28;1981;-56
2023/05/16 01:19:13;;;;;;;;;;;;;;;16.99;47.11;100701.53;5084864;28;1216;-56
2023/05/16 01:21:44;;;;;;;;;;;;;;;17.03;47.27;100707.31;5075031;28;1107;-56
2023/05/16 01:24:15;;;;;;;;;;;;;;;16.69;47.03;100703.22;5079643;28;1085;-56
2023/05/16 01:26:40;;;;;;;;;;;;;;;17.54;47.25;100695.31;5089243;28;1142;-56
2023/05/16 01:29:06;;;;;;;;;;;;;;;16.82;47.66;100701.84;5080674;28;991;-56
2023/05/16 01:31:32;;;;;;;;;;;;;;;16.64;47.12;100714.19;5099447;28;1014;-56
2023/05/16 01:33:57;;;;;;;;;;;;;;;16.64;46.88;100705.97;5096503;28;1067;-56
2023/05/16 01:36:24;;;;;;;;;;;;;;;17.34;47.46;100708.03;5088187;28;1901;-56
2023/05/16 01:38:53;;;;;;;;;;;;;;;16.85;47.22;100700.47;5083042;28;1154;-56
2023/05/16 01:41:49;;;;;;;;;;;;;;;16.74;46.60;100700.44;5078968;28;1004;-57
2023/05/16 01:44:20;;;;;;;;;;;;;;;17.43;47.40;100705.53;5041469;28;1331;-56
2023/05/16 01:46:45;;;;;;;;;;;;;;;16.80;47.62;100711.44;5063104;28;1285;-56
2023/05/16 01:49:15;;;;;;;;;;;;;;;16.57;47.07;100708.97;5051495;28;1163;-56
2023/05/16 01:51:41;;;;;;;;;;;;;;;16.57;46.06;100708.16;5079484;28;1834;-55
2023/05/16 01:54:09;;;;;;;;;;;;;;;17.74;47.00;100706.22;5068746;28;1082;-55
2023/05/16 01:56:35;;;;;;;;;;;;;;;16.88;47.92;100702.63;5081010;28;1905;-53
2023/05/16 01:59:00;;;;;;;;;;;;;;;16.64;47.18;100703.22;5063543;28;1245;-56
2023/05/16 02:01:26;;;;;;;;;;;;;;;17.49;47.32;100711.81;5065575;28;1182;-56
2023/05/16 02:03:51;;;;;;;;;;;;;;;17.18;47.76;100700.94;5078539;28;1166;-56
2023/05/16 02:06:17;;;;;;;;;;;;;;;16.87;47.14;100703.72;5091993;28;1209;-56
2023/05/16 02:08:43;;;;;;;;;;;;;;;17.41;47.68;100696.75;5060678;28;1106;-56
2023/05/16 02:11:09;;;;;;;;;;;;;;;17.24;48.00;100692.41;5091323;28;1022;-56
2023/05/16 02:13:35;;;;;;;;;;;;;;;16.84;47.54;100687.81;5068862;28;1288;-56
2023/05/16 02:16:03;;;;;;;;;;;;;;;16.71;46.49;100695.53;5097812;28;1914;-57
2023/05/16 02:18:28;;;;;;;;;;;;;;;17.45;47.29;100693.16;5080644;28;1093;-57
2023/05/16 02:20:54;;;;;;;;;;;;;;;16.86;47.55;100697.44;5079470;28;1118;-57
2023/05/16 02:23:20;;;;;;;;;;;;;;;16.63;47.02;100693.31;5098125;28;957;-57
2023/05/16 02:25:45;;;;;;;;;;;;;;;16.60;45.92;100693.88;5066801;28;1146;-57
2023/05/16 02:28:11;;;;;;;;;;;;;;;16.46;45.98;100693.63;5080021;28;1223;-57
2023/05/16 02:30:36;;;;;;;;;;;;;;;16.39;45.39;100685.66;5096344;28;1157;-57
2023/05/16 02:33:02;;;;;;;;;;;;;;;17.56;46.68;100682.94;5077885;28;1022;-56
2023/05/16 02:35:29;;;;;;;;;;;;;;;16.83;47.68;100702.63;5093085;28;1894;-57
2023/05/16 02:37:55;;;;;;;;;;;;;;;16.64;46.65;100684.00;5097584;28;1073;-56
2023/05/16 02:40:23;;;;;;;;;;;;;;;17.42;47.29;100685.47;5080115;28;1229;-57
2023/05/16 02:42:48;;;;;;;;;;;;;;;16.83;47.60;100683.41;5070789;28;1319;-57
2023/05/16 02:45:14;;;;;;;;;;;;;;;17.41;47.46;100670.06;5091473;28;1154;-56
2023/05/16 02:47:40;;;;;;;;;;;;;;;17.33;47.70;100678.91;5086437;28;1030;-57
2023/05/16 02:50:06;;;;;;;;;;;;;;;16.91;47.33;100682.88;5063632;28;1162;-56
2023/05/16 02:52:33;;;;;;;;;;;;;;;16.98;47.78;100688.91;5068032;28;1074;-56
2023/05/16 02:54:58;;;;;;;;;;;;;;;17.19;47.62;100683.38;5079523;28;1218;-56
2023/05/16 02:57:24;;;;;;;;;;;;;;;16.84;47.39;100694.13;5089359;28;1914;-56
2023/05/16 02:59:50;;;;;;;;;;;;;;;16.67;46.39;100683.44;5079387;28;1063;-56
2023/05/16 03:02:16;;;;;;;;;;;;;;;16.55;46.00;100685.66;5097897;28;1116;-56
2023/05/16 03:04:42;;;;;;;;;;;;;;;16.45;45.64;100688.41;5052442;28;1050;-57
2023/05/16 03:07:07;;;;;;;;;;;;;;;17.31;46.92;100697.63;5089751;28;1126;-57
2023/05/16 03:09:33;;;;;;;;;;;;;;;16.77;47.05;100688.09;5079015;28;1042;-52
2023/05/16 03:11:58;;;;;;;;;;;;;;;16.69;46.42;100692.25;5088205;28;1168;-55
2023/05/16 03:14:24;;;;;;;;;;;;;;;17.35;46.97;100693.22;5079012;28;1222;-55
2023/05/16 03:16:50;;;;;;;;;;;;;;;17.04;47.37;100689.72;5097671;28;1986;-56
2023/05/16 03:19:17;;;;;;;;;;;;;;;16.63;46.90;100693.31;5081783;28;1145;-55
2023/05/16 03:21:43;;;;;;;;;;;;;;;16.58;46.09;100674.13;5081945;28;1058;-52
2023/05/16 03:24:09;;;;;;;;;;;;;;;16.48;45.96;100679.63;5085903;28;851;-55
2023/05/16 03:26:35;;;;;;;;;;;;;;;16.49;46.17;100679.34;5077493;28;1185;-54
2023/05/16 03:29:00;;;;;;;;;;;;;;;17.29;47.08;100666.81;5057604;28;1031;-55
2023/05/16 03:31:26;;;;;;;;;;;;;;;16.75;47.26;100680.13;5094517;28;1039;-54
2023/05/16 03:33:51;;;;;;;;;;;;;;;17.44;47.15;100664.00;5086157;28;1197;-55
2023/05/16 03:36:17;;;;;;;;;;;;;;;17.12;47.80;100667.16;5080122;28;1905;-55
2023/05/16 03:38:42;;;;;;;;;;;;;;;16.80;47.60;100671.06;5076782;28;1055;-55
2023/05/16 03:41:08;;;;;;;;;;;;;;;16.73;46.55;100681.50;5075896;28;995;-55
2023/05/16 03:43:34;;;;;;;;;;;;;;;16.50;46.47;100685.66;5085619;28;1146;-54
2023/05/16 03:46:02;;;;;;;;;;;;;;;17.04;46.66;100682.31;5096602;28;1347;-56
2023/05/16 03:48:28;;;;;;;;;;;;;;;17.08;47.77;100683.41;5086992;28;886;-54
2023/05/16 03:50:54;;;;;;;;;;;;;;;16.70;47.30;100693.88;5075965;28;1141;-56
2023/05/16 03:53:20;;;;;;;;;;;;;;;16.56;46.44;100699.13;5071802;28;1340;-55
2023/05/16 03:55:45;;;;;;;;;;;;;;;16.49;46.21;100706.78;5082047;28;1905;-52
2023/05/16 03:58:11;;;;;;;;;;;;;;;16.72;46.68;100712.84;5089278;28;976;-56
2023/05/16 04:00:37;;;;;;;;;;;;;;;17.21;47.71;100725.13;5074417;28;1411;-58
2023/05/16 04:03:03;;;;;;;;;;;;;;;16.77;47.92;100737.53;5075935;28;1145;-56
2023/05/16 04:05:29;;;;;;;;;;;;;;;16.65;47.33;100745.22;5076065;28;1137;-57
2023/05/16 04:07:54;;;;;;;;;;;;;;;17.10;47.27;100743.56;5071719;28;976;-58
2023/05/16 04:10:20;;;;;;;;;;;;;;;16.92;48.06;100748.53;5084402;28;948;-57
2023/05/16 04:12:46;;;;;;;;;;;;;;;16.65;47.22;100739.72;5080246;28;1043;-58
2023/05/16 04:15:11;;;;;;;;;;;;;;;17.56;47.38;100737.13;5072519;28;1977;-57
2023/05/16 04:17:37;;;;;;;;;;;;;;;16.92;47.80;100731.22;5064309;28;1001;-58
2023/05/16 04:20:03;;;;;;;;;;;;;;;16.70;47.09;100729.56;5078213;28;1152;-57
2023/05/16 04:22:29;;;;;;;;;;;;;;;16.57;46.71;100725.44;5076218;28;1050;-55
2023/05/16 04:24:55;;;;;;;;;;;;;;;17.92;47.15;100724.03;5083641;28;1317;-57
2023/05/16 04:27:22;;;;;;;;;;;;;;;17.01;48.04;100724.09;5065423;28;1381;-56
2023/05/16 04:29:48;;;;;;;;;;;;;;;16.76;47.47;100722.16;5075102;28;990;-56
2023/05/16 04:32:14;;;;;;;;;;;;;;;16.66;46.81;100714.75;5075935;28;1131;-56
2023/05/16 04:34:40;;;;;;;;;;;;;;;16.55;46.24;100707.59;5075633;28;1419;-56
2023/05/16 04:37:06;;;;;;;;;;;;;;;16.39;46.03;100712.28;5088889;28;1905;-56
2023/05/16 04:39:32;;;;;;;;;;;;;;;16.53;45.97;100715.31;5070973;28;1058;-57
2023/05/16 04:41:58;;;;;;;;;;;;;;;17.52;47.01;100705.78;5067490;28;1114;-57
2023/05/16 04:44:25;;;;;;;;;;;;;;;16.81;47.84;100702.91;5060785;28;1349;-57
2023/05/16 04:46:51;;;;;;;;;;;;;;;16.67;46.93;100699.91;5063728;28;1171;-56
2023/05/16 04:49:17;;;;;;;;;;;;;;;16.53;46.49;100702.38;5079016;28;896;-57
2023/05/16 04:51:43;;;;;;;;;;;;;;;16.43;46.02;100708.69;5075435;28;1221;-56
2023/05/16 04:54:09;;;;;;;;;;;;;;;16.35;46.37;100712.00;5076919;28;1212;-57
2023/05/16 04:56:35;;;;;;;;;;;;;;;17.82;46.98;100710.28;5079354;28;1905;-56
2023/05/16 04:59:01;;;;;;;;;;;;;;;16.95;47.81;100716.94;5079936;28;1194;-57
2023/05/16 05:01:27;;;;;;;;;;;;;;;17.85;46.19;100711.66;5081922;28;1070;-57
2023/05/16 05:03:52;;;;;;;;;;;;;;;17.38;47.19;100711.88;5079249;28;1245;-55
2023/05/16 05:06:18;;;;;;;;;;;;;;;17.06;48.17;100706.75;5061881;28;1134;-55
2023/05/16 05:08:44;;;;;;;;;;;;;;;16.86;48.71;100704.84;5079678;28;1077;-55
2023/05/16 05:11:10;;;;;;;;;;;;;;;16.71;49.26;100697.44;5080174;28;1193;-56
2023/05/16 05:13:35;;;;;;;;;;;;;;;16.56;49.67;100696.38;5079893;28;880;-56
2023/05/16 05:16:03;;;;;;;;;;;;;;;16.47;50.11;100694.47;5079261;28;1909;-57
2023/05/16 05:18:29;;;;;;;;;;;;;;;16.36;50.27;100701.84;5079113;28;1034;-56
2023/05/16 05:20:55;;;;;;;;;;;;;;;16.27;50.48;100701.59;5079277;28;1174;-56
2023/05/16 05:23:20;;;;;;;;;;;;;;;16.18;50.94;100703.22;5079628;28;1119;-57
2023/05/16 05:25:46;;;;;;;;;;;;;;;16.11;51.00;100713.63;5094851;28;943;-57
2023/05/16 05:28:11;;;;;;;;;;;;;;;16.02;51.44;100708.69;5067680;28;1059;-55
2023/05/16 05:30:37;;;;;;;;;;;;;;;16.67;50.20;100704.59;5057753;28;1083;-57
2023/05/16 05:33:03;;;;;;;;;;;;;;;17.35;48.28;100698.69;5068041;28;1115;-55
2023/05/16 05:35:28;;;;;;;;;;;;;;;16.67;49.95;100705.41;5068111;28;1981;-55
2023/05/16 05:37:54;;;;;;;;;;;;;;;16.37;50.98;100712.56;5085522;28;906;-55
2023/05/16 05:40:20;;;;;;;;;;;;;;;16.23;51.37;100705.97;5079008;28;1145;-56
2023/05/16 05:42:45;;;;;;;;;;;;;;;16.14;51.51;100715.81;5071666;28;1385;-55
2023/05/16 05:45:11;;;;;;;;;;;;;;;16.06;51.91;100711.69;5065860;28;950;-55
2023/05/16 05:47:36;;;;;;;;;;;;;;;16.60;50.77;100711.16;5067865;28;1076;-55
2023/05/16 05:50:02;;;;;;;;;;;;;;;17.48;48.42;100699.22;5067898;28;1117;-55
2023/05/16 05:52:28;;;;;;;;;;;;;;;16.71;50.43;100698.25;5047883;28;1302;-55
2023/05/16 05:54:53;;;;;;;;;;;;;;;16.42;51.13;100687.03;5067570;28;1210;-56
2023/05/16 05:57:20;;;;;;;;;;;;;;;16.31;51.48;100680.72;5073876;28;1975;-56
2023/05/16 05:59:45;;;;;;;;;;;;;;;16.15;52.07;100668.09;5064585;28;1349;-57
2023/05/16 06:02:11;;;;;;;;;;;;;;;16.06;52.20;100674.13;5066163;28;1120;-56
2023/05/16 06:04:37;;;;;;;;;;;;;;;16.03;52.53;100671.94;5071365;28;979;-57
2023/05/16 06:07:03;;;;;;;;;;;;;;;17.23;49.57;100673.47;5068411;28;1201;-57
2023/05/16 06:09:29;;;;;;;;;;;;;;;16.99;50.29;100673.28;5079634;28;1222;-56
2023/05/16 06:11:55;;;;;;;;;;;;;;;16.50;51.48;100677.44;5075250;28;1238;-57
2023/05/16 06:14:20;;;;;;;;;;;;;;;16.30;52.20;100670.00;5057498;28;1198;-58
2023/05/16 06:16:46;;;;;;;;;;;;;;;16.16;52.43;100661.50;5063599;28;1883;-57
2023/05/16 06:19:14;;;;;;;;;;;;;;;16.03;52.79;100657.38;5076290;28;900;-56
2023/05/16 06:21:40;;;;;;;;;;;;;;;16.19;52.84;100658.22;5061700;28;1072;-56
2023/05/16 06:24:06;;;;;;;;;;;;;;;17.65;49.27;100647.41;5087326;28;1015;-57
2023/05/16 06:26:32;;;;;;;;;;;;;;;16.86;51.08;100642.50;5088026;28;1065;-58
2023/05/16 06:28:57;;;;;;;;;;;;;;;16.47;52.07;100634.06;5079020;28;1222;-57
2023/05/16 06:31:23;;;;;;;;;;;;;;;16.34;52.49;100641.75;5087954;28;1135;-57
2023/05/16 06:33:49;;;;;;;;;;;;;;;16.20;52.89;100635.16;5076489;28;1074;-57
2023/05/16 06:36:14;;;;;;;;;;;;;;;16.37;52.63;100637.66;5069286;28;1926;-56
2023/05/16 06:38:40;;;;;;;;;;;;;;;17.45;49.92;100638.19;5066460;28;1047;-57
2023/05/16 06:41:06;;;;;;;;;;;;;;;16.70;52.01;100636.22;5069482;28;1214;-57
2023/05/16 06:43:31;;;;;;;;;;;;;;;16.42;52.74;100638.47;5083660;28;1147;-57
2023/05/16 06:45:57;;;;;;;;;;;;;;;16.37;52.86;100645.88;5022042;28;1322317;-57
2023/05/16 06:48:22;;;;;;;;;;;;;;;16.20;53.12;100637.91;5074380;28;992;-57
2023/05/16 06:50:48;;;;;;;;;;;;;;;16.88;51.79;100639.47;5054747;28;1123;-57
2023/05/16 06:53:14;;;;;;;;;;;;;;;17.40;50.42;100646.47;5084936;28;1138;-57
2023/05/16 06:55:39;;;;;;;;;;;;;;;16.75;52.04;100651.88;5083213;28;1905;-58
2023/05/16 06:58:05;;;;;;;;;;;;;;;16.50;52.84;100652.72;5053434;28;1020;-58
2023/05/16 07:00:31;;;;;;;;;;;;;;;16.36;53.03;100656.03;5073676;28;1106;-57
2023/05/16 07:02:56;;;;;;;;;;;;;;;16.24;53.35;100667.28;5074381;28;1109;-57
2023/05/16 07:05:22;;;;;;;;;;;;;;;16.15;53.63;100679.88;5061068;28;1535;-55
2023/05/16 07:07:48;;;;;;;;;;;;;;;17.51;50.59;100685.69;5070018;28;1293;-56
2023/05/16 07:10:14;;;;;;;;;;;;;;;16.96;52.11;100690.28;5075350;28;1118;-57
2023/05/16 07:12:40;;;;;;;;;;;;;;;16.56;53.36;100687.28;5076120;28;1405;-55
2023/05/16 07:15:06;;;;;;;;;;;;;;;16.39;53.69;100691.13;5076373;28;1205;-56
2023/05/16 07:17:32;;;;;;;;;;;;;;;16.24;53.79;100686.50;5058382;28;1910;-57
2023/05/16 07:19:57;;;;;;;;;;;;;;;16.16;53.91;100694.41;5056814;28;1345;-57
2023/05/16 07:22:23;;;;;;;;;;;;;;;17.48;51.46;100685.47;5058852;28;1338;-58
2023/05/16 07:24:49;;;;;;;;;;;;;;;17.00;52.50;100689.47;5069247;28;1246;-57
2023/05/16 07:27:14;;;;;;;;;;;;;;;16.56;53.46;100676.31;5060779;28;1072;-59
2023/05/16 07:29:40;;;;;;;;;;;;;;;16.39;53.93;100671.94;5059015;28;1150;-58
2023/05/16 07:32:06;;;;;;;;;;;;;;;16.33;53.92;100672.22;5072914;28;1352;-59
2023/05/16 07:34:31;;;;;;;;;;;;;;;16.76;53.46;100679.03;5072842;28;1545;-57
2023/05/16 07:36:57;;;;;;;;;;;;;;;17.42;51.60;100684.66;5062075;28;1914;-57
2023/05/16 07:39:22;;;;;;;;;;;;;;;16.70;53.50;100688.38;5065866;28;1143;-59
2023/05/16 07:41:48;;;;;;;;;;;;;;;16.45;54.03;100678.25;5076415;28;1166;-57
2023/05/16 07:44:13;;;;;;;;;;;;;;;16.33;54.07;100677.72;5083591;28;1244;-57
2023/05/16 07:46:39;;;;;;;;;;;;;;;16.26;54.36;100683.47;5070397;28;1198;-59
2023/05/16 07:49:05;;;;;;;;;;;;;;;16.11;54.75;100684.28;5067228;28;1304;-58
2023/05/16 07:51:30;;;;;;;;;;;;;;;16.51;54.29;100684.53;5083820;28;1023;-57
2023/05/16 07:53:56;;;;;;;;;;;;;;;17.65;51.53;100690.59;5070944;28;1061;-58
2023/05/16 07:56:22;;;;;;;;;;;;;;;16.85;53.47;100697.72;5059386;28;1906;-58
2023/05/16 07:58:48;;;;;;;;;;;;;;;16.49;54.31;100700.47;5058751;28;995;-58
2023/05/16 08:01:13;;;;;;;;;;;;;;;16.33;54.54;100711.47;5079229;28;1431;-58
2023/05/16 08:03:39;;;;;;;;;;;;;;;16.21;55.02;100725.41;5073674;28;1099;-56
2023/05/16 08:06:04;;;;;;;;;;;;;;;16.11;54.84;100725.41;5061695;28;911;-56
2023/05/16 08:08:30;;;;;;;;;;;;;;;16.03;54.95;100724.03;5073823;28;1138;-56
2023/05/16 08:10:56;;;;;;;;;;;;;;;16.42;55.05;100726.28;5062556;28;1281;-57
2023/05/16 08:13:21;;;;;;;;;;;;;;;17.70;52.17;100720.84;5067867;28;1067;-56
2023/05/16 08:15:47;;;;;;;;;;;;;;;16.87;53.98;100723.81;5075264;28;1909;-57
2023/05/16 08:18:16;;;;;;;;;;;;;;;16.49;54.87;100722.44;5075496;28;1082;-57
2023/05/16 08:20:41;;;;;;;;;;;;;;;16.36;54.92;100716.38;5067280;28;1444;-57
2023/05/16 08:23:07;;;;;;;;;;;;;;;16.21;55.03;100713.63;5061236;28;1398;-57
2023/05/16 08:25:33;;;;;;;;;;;;;;;16.79;54.53;100723.50;5064092;28;1352;-57
2023/05/16 08:28:00;;;;;;;;;;;;;;;17.50;52.42;100725.31;5069760;28;1134;-59
2023/05/16 08:30:26;;;;;;;;;;;;;;;16.76;54.54;100725.72;5056261;28;1282;-58
2023/05/16 08:32:52;;;;;;;;;;;;;;;16.54;54.89;100717.78;5068286;28;1281;-57
2023/05/16 08:35:17;;;;;;;;;;;;;;;16.35;54.99;100717.47;5059783;28;1898;-58
2023/05/16 08:37:43;;;;;;;;;;;;;;;16.23;55.36;100717.75;5063490;28;1285;-56
2023/05/16 08:40:09;;;;;;;;;;;;;;;16.23;55.33;100728.72;5071857;28;1047;-57
2023/05/16 08:42:35;;;;;;;;;;;;;;;17.64;52.54;100710.94;5073632;28;1345;-57
2023/05/16 08:45:01;;;;;;;;;;;;;;;16.84;54.39;100709.78;5074673;28;1150;-57
2023/05/16 08:47:26;;;;;;;;;;;;;;;16.57;55.08;100698.00;5039745;28;1465;-56
2023/05/16 08:49:52;;;;;;;;;;;;;;;16.38;55.17;100700.50;5055063;28;1100;-57
2023/05/16 08:52:18;;;;;;;;;;;;;;;16.24;55.38;100696.63;5046238;28;1348;-51
2023/05/16 08:54:43;;;;;;;;;;;;;;;16.16;55.31;100691.66;5068238;28;1229;-58
2023/05/16 08:57:09;;;;;;;;;;;;;;;17.51;53.16;100695.88;5047804;28;1985;-62
2023/05/16 08:59:34;;;;;;;;;;;;;;;17.03;54.29;100697.16;5068313;28;1059;-60
2023/05/16 09:02:00;;;;;;;;;;;;;;;16.63;54.99;100704.31;5075282;28;1086;-61
2023/05/16 09:04:26;;;;;;;;;;;;;;;16.45;55.28;100710.34;5071894;28;1226;-61
2023/05/16 09:06:51;;;;;;;;;;;;;;;16.29;55.46;100693.88;5049108;28;1159;-61
2023/05/16 09:09:18;;;;;;;;;;;;;;;16.21;55.48;100708.97;5056044;28;1278;-59
2023/05/16 09:11:44;;;;;;;;;;;;;;;16.08;55.34;100690.31;5056049;28;1324;-58
2023/05/16 09:14:09;;;;;;;;;;;;;;;17.07;54.22;100692.75;5044492;28;1301;-59
2023/05/16 09:16:35;;;;;;;;;;;;;;;17.27;53.66;100685.53;5055899;28;1988;-59
2023/05/16 09:19:00;;;;;;;;;;;;;;;16.68;55.18;100685.09;5056044;28;1242;-58
2023/05/16 09:21:27;;;;;;;;;;;;;;;16.44;55.38;100679.34;5056729;28;1245;-58
2023/05/16 09:23:52;;;;;;;;;;;;;;;16.32;55.51;100678.81;5057540;28;1242;-59
2023/05/16 09:26:18;;;;;;;;;;;;;;;16.22;55.61;100668.66;5071044;28;1333;-58
2023/05/16 09:28:44;;;;;;;;;;;;;;;16.98;54.69;100668.88;5065685;28;1352;-58
2023/05/16 09:31:20;;;;;;;;;;;;;;;17.30;53.77;100671.22;5075830;28;1366;-57
2023/05/16 09:33:45;;;;;;;;;;;;;;;16.71;55.07;100662.56;5078397;28;1142;-57
2023/05/16 09:36:11;;;;;;;;;;;;;;;16.45;55.70;100660.97;5095224;28;1923;-56
2023/05/16 09:38:36;;;;;;;;;;;;;;;16.35;55.72;100659.84;5083318;28;999;-56
2023/05/16 09:41:02;;;;;;;;;;;;;;;16.26;55.55;100658.78;5066064;28;1219;-56
2023/05/16 09:43:28;;;;;;;;;;;;;;;17.62;53.08;100651.56;5061051;28;1116;-56
2023/05/16 09:45:54;;;;;;;;;;;;;;;16.91;54.96;100663.66;5078740;28;1105;-56
2023/05/16 09:48:19;;;;;;;;;;;;;;;16.59;55.36;100665.63;5095896;28;1082;-57
2023/05/16 09:50:46;;;;;;;;;;;;;;;16.46;55.34;100677.16;5089162;28;937;-56
2023/05/16 09:53:12;;;;;;;;;;;;;;;16.33;55.48;100669.47;5095434;28;1158;-55
2023/05/16 09:55:37;;;;;;;;;;;;;;;16.22;55.43;100671.38;5089404;28;1910;-54
2023/05/16 09:58:03;;;;;;;;;;;;;;;17.01;54.93;100671.06;5073919;28;1240;-54
2023/05/16 10:00:30;;;;;;;;;;;;;;;17.43;53.71;100667.88;5070366;28;1373;-54
2023/05/16 10:02:55;;;;;;;;;;;;;;;16.76;55.30;100659.81;5078184;28;1037;-56
2023/05/16 10:05:21;;;;;;;;;;;;;;;16.55;55.57;100674.66;5062770;28;1567;-57
2023/05/16 10:07:47;;;;;;;;;;;;;;;16.38;55.75;100667.56;5088598;28;1063;-57
2023/05/16 10:10:12;;;;;;;;;;;;;;;16.26;55.71;100661.53;5068480;28;1261;-57
2023/05/16 10:12:38;;;;;;;;;;;;;;;16.14;55.80;100652.72;5068220;28;1031;-57
2023/05/16 10:15:04;;;;;;;;;;;;;;;17.25;54.82;100655.59;5070369;28;824;-58
2023/05/16 10:17:31;;;;;;;;;;;;;;;17.27;54.39;100641.56;5081002;28;1923;-58
2023/05/16 10:19:57;;;;;;;;;;;;;;;16.71;55.80;100637.84;5087797;28;1078;-56
2023/05/16 10:22:22;;;;;;;;;;;;;;;16.50;55.96;100639.81;5088054;28;948;-55
2023/05/16 10:24:57;;;;;;;;;;;;;;;16.37;55.76;100630.22;5070053;28;1178;-55
2023/05/16 10:27:23;;;;;;;;;;;;;;;16.23;56.01;100634.63;5090677;28;1015;-55
2023/05/16 10:29:49;;;;;;;;;;;;;;;16.14;56.02;100634.34;5078333;28;1143;-56
2023/05/16 10:32:14;;;;;;;;;;;;;;;16.08;56.13;100638.19;5091951;28;1063;-55
2023/05/16 10:34:40;;;;;;;;;;;;;;;17.48;54.51;100633.22;5049915;28;1234;-56
2023/05/16 10:37:06;;;;;;;;;;;;;;;16.97;55.36;100624.09;5063076;28;1977;-54
2023/05/16 10:39:31;;;;;;;;;;;;;;;16.63;56.06;100621.13;5072612;28;1235;-53
2023/05/16 10:41:58;;;;;;;;;;;;;;;16.40;56.16;100623.38;5075276;28;1535;-54
2023/05/16 10:44:24;;;;;;;;;;;;;;;16.75;56.33;100611.50;5037735;28;1511;-55
2023/05/16 10:46:50;;;;;;;;;;;;;;;17.58;54.09;100605.66;5079100;28;1034;-54
2023/05/16 10:49:22;;;;;;;;;;;;;;;16.86;55.76;100606.81;5079090;28;1339;-55
2023/05/16 10:52:04;;;;;;;;;;;;;;;16.55;56.06;100603.28;5086776;28;912;-55
2023/05/16 10:54:36;;;;;;;;;;;;;;;16.41;56.11;100603.88;5065818;28;1693;-54
2023/05/16 10:57:06;;;;;;;;;;;;;;;16.33;56.03;100595.41;5079247;28;1909;-55
2023/05/16 10:59:38;;;;;;;;;;;;;;;16.19;56.31;100595.13;5073863;28;1036;-56
2023/05/16 11:02:05;;;;;;;;;;;;;;;16.17;55.80;100594.56;5070886;28;1508;-56
2023/05/16 11:04:50;;;;;;;;;;;;;;;16.48;56.34;100592.63;5055959;28;1424;-57
2023/05/16 11:07:19;;;;;;;;;;;;;;;17.17;55.42;100587.47;5077466;28;1154;-57
2023/05/16 11:09:45;;;;;;;;;;;;;;;16.65;56.15;100583.22;5073558;28;1177;-54
2023/05/16 11:12:11;;;;;;;;;;;;;;;16.39;56.67;100578.63;5064269;28;1286;-53
2023/05/16 11:14:44;;;;;;;;;;;;;;;16.39;56.26;100572.31;5066745;28;1048;-54
2023/05/16 11:17:10;;;;;;;;;;;;;;;16.29;56.42;100570.41;5069484;28;1972;-53
2023/05/16 11:19:39;;;;;;;;;;;;;;;17.19;55.87;100574.25;5077325;28;1026;-55
2023/05/16 11:22:08;;;;;;;;;;;;;;;17.30;55.54;100571.47;5069273;28;1557;-55
2023/05/16 11:24:34;;;;;;;;;;;;;;;16.68;56.92;100572.53;5064302;28;1007;-55
2023/05/16 11:27:00;;;;;;;;;;;;;;;16.53;56.71;100572.56;5083276;28;1019;-55
2023/05/16 11:29:27;;;;;;;;;;;;;;;16.41;56.54;100565.47;5064291;28;1167;-60
2023/05/16 11:31:52;;;;;;;;;;;;;;;16.31;56.18;100565.47;5054302;28;1442;-59
2023/05/16 11:34:18;;;;;;;;;;;;;;;16.19;56.31;100573.19;5076732;28;1225;-59
2023/05/16 11:36:44;;;;;;;;;;;;;;;16.17;56.06;100562.50;5076275;28;1914;-59
2023/05/16 11:39:11;;;;;;;;;;;;;;;16.06;56.27;100564.41;5082132;28;1081;-59
2023/05/16 11:41:37;;;;;;;;;;;;;;;17.41;55.72;100543.63;5062209;28;1493;-60
2023/05/16 11:44:04;;;;;;;;;;;;;;;17.01;56.63;100534.53;5076824;28;1050;-60
2023/05/16 11:46:30;;;;;;;;;;;;;;;16.57;56.92;100535.22;5069524;28;1395;-59
2023/05/16 11:48:56;;;;;;;;;;;;;;;16.45;56.71;100542.94;5067732;28;1058;-59
2023/05/16 11:51:21;;;;;;;;;;;;;;;16.30;56.75;100536.41;5074682;28;1093;-59
2023/05/16 11:53:48;;;;;;;;;;;;;;;16.22;56.31;100524.06;5056482;28;1103;-59
2023/05/16 11:56:14;;;;;;;;;;;;;;;16.40;57.10;100528.13;5069455;28;1905;-60
2023/05/16 11:58:41;;;;;;;;;;;;;;;17.27;55.99;100528.91;5076461;28;1105;-60
2023/05/16 12:01:07;;;;;;;;;;;;;;;16.62;57.12;100532.47;5066261;28;1034;-58
2023/05/16 12:03:34;;;;;;;;;;;;;;;16.41;57.00;100532.53;5074322;28;1098;-58
2023/05/16 12:05:59;;;;;;;;;;;;;;;16.29;56.89;100529.25;5065739;28;915;-60
2023/05/16 12:08:25;;;;;;;;;;;;;;;16.20;56.73;100531.75;5050382;28;1064;-60
2023/05/16 12:10:51;;;;;;;;;;;;;;;16.08;56.30;100532.03;5056267;28;1179;-60
2023/05/16 12:13:20;;;;;;;;;;;;;;;15.98;56.43;100523.81;5057811;28;1329;-60
2023/05/16 12:15:46;;;;;;;;;;;;;;;16.53;56.71;100523.97;5066865;28;1972;-60
2023/05/16 12:18:11;;;;;;;;;;;;;;;17.71;55.21;100525.31;5063268;28;1310;-61
2023/05/16 12:20:37;;;;;;;;;;;;;;;16.85;56.67;100519.22;5060930;28;1147;-60
2023/05/16 12:23:03;;;;;;;;;;;;;;;16.60;56.65;100504.47;5062312;28;1241;-60
2023/05/16 12:25:32;;;;;;;;;;;;;;;16.40;56.77;100497.94;5066988;28;1211;-59
2023/05/16 12:27:58;;;;;;;;;;;;;;;16.28;56.56;100497.44;5073430;28;1194;-61
2023/05/16 12:30:25;;;;;;;;;;;;;;;16.19;56.49;100501.84;5075352;28;1185;-60
2023/05/16 12:33:00;;;;;;;;;;;;;;;16.43;56.92;100500.13;5082783;28;999;-60
2023/05/16 12:35:29;;;;;;;;;;;;;;;17.54;55.74;100491.88;5061769;28;1909;-58
2023/05/16 12:37:55;;;;;;;;;;;;;;;16.81;56.98;100485.16;5066918;28;1131;-57
2023/05/16 12:40:20;;;;;;;;;;;;;;;16.52;57.00;100480.34;5080233;28;1082;-58
2023/05/16 12:42:50;;;;;;;;;;;;;;;16.37;56.63;100476.56;5048630;28;1155;-60